Time;durP1;ratioP1;P1;durP2;ratioP2;P2;SDS_P1;SDS_P2;PMS_P1;PMS_P2;Temp;Humidity;BMP_temperature;BMP_pressure;BME280_temperature;BME280_humidity;BME280_pressure;Samples;Min_cycle;Max_cycle;Signal;HPM_P1;HPM_P2
2021/12/11 00:00:54;;;;;;;76.90;47.75;;;;;;;2.08;100.00;99480.34;5068397;28;20040;-57
2021/12/11 00:03:33;;;;;;;85.25;49.15;;;;;;;2.16;100.00;99483.53;5067119;28;20186;-57
2021/12/11 00:06:08;;;;;;;84.13;49.30;;;;;;;2.13;100.00;99495.75;5068153;28;20157;-57
2021/12/11 00:08:34;;;;;;;81.13;50.75;;;;;;;2.12;100.00;99499.22;5067965;28;20126;-57
2021/12/11 00:11:05;;;;;;;80.28;49.45;;;;;;;2.12;100.00;99504.41;5067125;28;20020;-57
2021/12/11 00:13:32;;;;;;;82.78;49.65;;;;;;;2.15;100.00;99512.06;5068046;28;20100;-57
2021/12/11 00:15:58;;;;;;;83.70;51.65;;;;;;;2.04;100.00;99500.31;5068391;28;20041;-57
2021/12/11 00:18:26;;;;;;;81.13;48.03;;;;;;;2.16;100.00;99518.97;5068045;28;20034;-57
2021/12/11 00:20:57;;;;;;;80.32;49.33;;;;;;;2.18;100.00;99535.31;5067034;28;20862;-57
2021/12/11 00:23:35;;;;;;;81.93;49.80;;;;;;;2.15;100.00;99532.81;5067674;28;20031;-57
2021/12/11 00:26:01;;;;;;;82.90;50.45;;;;;;;2.15;100.00;99543.16;5068393;28;20090;-57
2021/12/11 00:28:26;;;;;;;90.05;51.55;;;;;;;2.15;100.00;99543.16;5068335;28;20801;-57
2021/12/11 00:30:53;;;;;;;81.97;47.97;;;;;;;2.14;100.00;99547.50;5066242;28;20135;-57
2021/12/11 00:33:25;;;;;;;84.57;51.22;;;;;;;2.14;100.00;99549.22;5066513;28;20031;-57
2021/12/11 00:35:53;;;;;;;79.97;49.35;;;;;;;2.13;100.00;99563.09;5068047;28;20027;-57
2021/12/11 00:38:38;;;;;;;85.32;49.28;;;;;;;2.14;100.00;99568.22;5067623;28;20024;-57
2021/12/11 00:41:04;;;;;;;;;;;;;;;2.12;100.00;99572.63;5068506;28;20027;-57
2021/12/11 00:43:34;;;;;;;81.25;45.13;;;;;;;2.16;100.00;99579.41;5068240;28;19912;-57
2021/12/11 00:46:00;;;;;;;79.97;45.50;;;;;;;2.13;100.00;99582.06;5066576;28;20163;-57
2021/12/11 00:48:27;;;;;;;85.18;47.22;;;;;;;1.75;100.00;99533.97;5067416;28;20579;-57
2021/12/11 00:50:59;;;;;;;81.40;48.03;;;;;;;2.06;100.00;99596.13;5067317;28;20395;-57
2021/12/11 00:53:29;;;;;;;87.28;46.97;;;;;;;2.06;100.00;99606.47;5067068;28;20039;-57
2021/12/11 00:56:00;;;;;;;78.15;46.58;;;;;;;2.12;100.00;99613.22;5067935;28;20051;-57
2021/12/11 00:58:28;;;;;;;81.57;47.72;;;;;;;2.08;100.00;99622.81;5065988;28;20038;-57
2021/12/11 01:01:00;;;;;;;73.60;45.33;;;;;;;2.04;100.00;99614.28;5067385;28;20485;-57
2021/12/11 01:03:49;;;;;;;69.60;44.92;;;;;;;2.10;100.00;99627.94;5065713;28;20035;-57
2021/12/11 01:06:22;;;;;;;72.22;42.08;;;;;;;2.05;100.00;99622.91;5066480;28;20035;-57
2021/12/11 01:08:55;;;;;;;85.20;46.92;;;;;;;2.00;100.00;99620.44;5068287;28;20090;-57
2021/12/11 01:11:35;;;;;;;67.97;44.23;;;;;;;2.03;100.00;99619.50;5065554;28;20054;-57
2021/12/11 01:14:37;;;;;;;83.43;44.30;;;;;;;2.06;100.00;99630.63;5067347;28;20277;-57
2021/12/11 01:17:17;;;;;;;79.72;44.67;;;;;;;2.02;100.00;99634.22;5060404;28;20147;-57
2021/12/11 01:19:45;;;;;;;65.85;41.55;;;;;;;1.98;100.00;99636.91;5066850;28;20032;-58
2021/12/11 01:22:31;;;;;;;69.03;42.42;;;;;;;1.95;100.00;99648.22;5067055;28;20086;-57
2021/12/11 01:24:57;;;;;;;74.50;43.25;;;;;;;1.95;100.00;99662.91;5067055;28;20047;-57
2021/12/11 01:27:24;;;;;;;70.10;44.22;;;;;;;1.94;100.00;99664.66;5066795;28;20020;-57
2021/12/11 01:29:55;;;;;;;69.60;41.55;;;;;;;1.87;100.00;99664.84;5066882;28;20024;-57
2021/12/11 01:32:21;;;;;;;62.97;42.53;;;;;;;1.85;100.00;99667.50;5065999;28;20830;-57
2021/12/11 01:34:47;;;;;;;67.80;43.00;;;;;;;1.83;100.00;99669.25;5066549;28;20030;-57
2021/12/11 01:37:15;;;;;;;80.15;45.65;;;;;;;1.83;100.00;99674.44;5065755;28;20035;-57
2021/12/11 01:39:40;;;;;;;68.22;43.45;;;;;;;1.56;100.00;99644.09;5061439;28;20028;-57
2021/12/11 01:42:13;;;;;;;72.35;43.30;;;;;;;1.81;100.00;99685.72;5045411;28;20093;-57
2021/12/11 01:44:41;;;;;;;73.47;43.55;;;;;;;1.79;100.00;99688.34;5044675;28;20882;-57
2021/12/11 01:47:13;;;;;;;66.18;41.58;;;;;;;1.74;100.00;99695.41;5045303;28;20032;-57
2021/12/11 01:49:42;;;;;;;74.28;44.35;;;;;;;1.68;100.00;99695.56;5046658;28;20041;-57
2021/12/11 01:52:35;;;;;;;70.97;42.10;;;;;;;1.68;100.00;99705.06;5046790;28;20957;-57
2021/12/11 01:55:12;;;;;;;69.25;41.22;;;;;;;1.69;100.00;99707.59;5046461;28;20036;-57
2021/12/11 01:57:37;;;;;;;75.18;45.08;;;;;;;1.69;100.00;99717.97;5050017;28;20035;-57
2021/12/11 02:00:14;;;;;;;68.95;45.35;;;;;;;1.56;100.00;99701.03;5050290;28;20055;-57
2021/12/11 02:02:44;;;;;;;71.70;44.80;;;;;;;1.71;100.00;99723.97;5049985;28;20043;-57
2021/12/11 02:05:13;;;;;;;70.40;43.55;;;;;;;1.76;100.00;99729.84;5050112;28;20043;-57
2021/12/11 02:07:44;;;;;;;77.22;44.08;;;;;;;1.74;100.00;99731.66;5048101;28;20027;-57
2021/12/11 02:10:22;;;;;;;77.00;42.63;;;;;;;1.75;100.00;99737.69;5050785;28;20890;-57
2021/12/11 02:12:48;;;;;;;76.13;43.88;;;;;;;1.74;100.00;99742.00;5049139;28;20043;-57
2021/12/11 02:15:19;;;;;;;74.22;43.13;;;;;;;1.71;100.00;99744.69;5033206;28;20044;-57
2021/12/11 02:17:52;;;;;;;74.10;44.30;;;;;;;1.72;100.00;99759.34;5049209;28;20137;-57
2021/12/11 02:20:32;;;;;;;67.60;43.42;;;;;;;1.74;100.00;99764.47;5049823;28;20941;-57
2021/12/11 02:22:58;;;;;;;65.85;42.70;;;;;;;1.77;100.00;99780.78;5049281;28;20043;-57
2021/12/11 02:25:28;;;;;;;79.38;44.72;;;;;;;1.80;100.00;99772.91;5049671;28;20027;-57
2021/12/11 02:28:02;;;;;;;75.68;44.60;;;;;;;1.85;100.00;99773.69;5049559;28;20031;-57
2021/12/11 02:30:44;;;;;;;80.40;46.80;;;;;;;1.87;100.00;99777.06;5047723;28;20059;-57
2021/12/11 02:33:25;;;;;;;74.57;44.65;;;;;;;1.92;100.00;99788.19;5049798;28;20896;-57
2021/12/11 02:35:53;;;;;;;98.75;51.95;;;;;;;1.93;100.00;99778.63;5048230;28;20893;-57
2021/12/11 02:38:36;;;;;;;86.72;50.78;;;;;;;1.95;100.00;99785.50;5049754;28;20024;-57
2021/12/11 02:41:14;;;;;;;87.22;48.70;;;;;;;1.96;100.00;99794.94;5048508;28;20024;-57
2021/12/11 02:43:42;;;;;;;72.20;43.80;;;;;;;1.97;100.00;99806.16;5049089;28;20040;-57
2021/12/11 02:46:21;;;;;;;85.57;47.67;;;;;;;1.98;100.00;99806.16;5049910;28;20127;-57
2021/12/11 02:48:55;;;;;;;89.38;50.10;;;;;;;2.00;100.00;99808.69;5049326;28;20032;-57
2021/12/11 02:51:35;;;;;;;81.32;46.45;;;;;;;1.97;100.00;99816.53;5049143;28;20035;-57
2021/12/11 02:54:08;;;;;;;92.40;48.35;;;;;;;2.00;100.00;99817.31;5049868;28;20185;-57
2021/12/11 02:56:43;;;;;;;76.83;44.73;;;;;;;1.77;100.00;99783.34;5047263;28;20897;-57
2021/12/11 02:59:12;;;;;;;;;;;;;;;2.01;100.00;99819.03;5049306;28;20304;-57
2021/12/11 03:01:46;;;;;;;80.53;40.13;;;;;;;2.00;100.00;99822.50;5031369;28;20782;-57
2021/12/11 03:04:21;;;;;;;89.30;46.57;;;;;;;2.01;100.00;99829.38;5049646;28;20105;-57
2021/12/11 03:06:49;;;;;;;83.35;45.47;;;;;;;2.02;100.00;99827.66;5049036;28;20873;-57
2021/12/11 03:09:27;;;;;;;96.47;49.15;;;;;;;2.03;100.00;99826.72;5047878;28;20028;-57
2021/12/11 03:11:55;;;;;;;92.38;48.97;;;;;;;2.03;100.00;99837.09;5048464;28;20077;-57
2021/12/11 03:14:23;;;;;;;76.10;42.08;;;;;;;2.03;100.00;99837.09;5047883;28;20028;-57
2021/12/11 03:16:50;;;;;;;73.72;43.88;;;;;;;2.05;100.00;99841.38;5048078;28;20028;-57
2021/12/11 03:19:17;;;;;;;76.30;45.92;;;;;;;2.06;100.00;99843.06;5048045;28;20063;-57
2021/12/11 03:21:43;;;;;;;81.05;43.67;;;;;;;2.07;100.00;99854.28;5049312;28;20457;-57
2021/12/11 03:24:09;;;;;;;70.40;42.25;;;;;;;2.09;100.00;99857.69;5047306;28;20024;-57
2021/12/11 03:26:35;;;;;;;64.13;39.38;;;;;;;2.09;100.00;99857.69;5048593;28;20063;-57
2021/12/11 03:29:01;;;;;;;76.63;44.38;;;;;;;2.12;100.00;99861.94;5030451;28;20028;-57
2021/12/11 03:31:26;;;;;;;70.72;38.25;;;;;;;2.14;100.00;99867.94;5048750;28;20199;-57
2021/12/11 03:33:55;;;;;;;74.80;42.72;;;;;;;2.14;100.00;99870.53;5048556;28;20851;-58
2021/12/11 03:36:22;;;;;;;69.13;40.70;;;;;;;1.80;100.00;99809.19;5048869;28;20141;-56
2021/12/11 03:38:52;;;;;;;65.72;40.75;;;;;;;2.13;100.00;99871.44;5046870;28;20020;-56
2021/12/11 03:41:18;;;;;;;64.90;39.30;;;;;;;2.15;100.00;99883.47;5048241;28;20909;-56
2021/12/11 03:43:44;;;;;;;55.38;37.28;;;;;;;2.16;100.00;99879.13;5047946;28;20035;-55
2021/12/11 03:46:11;;;;;;;67.25;41.28;;;;;;;2.17;100.00;99886.84;5048590;28;20028;-56
2021/12/11 03:48:41;;;;;;;72.93;41.65;;;;;;;2.01;100.00;99850.09;5030911;28;20911;-55
2021/12/11 03:51:09;;;;;;;67.45;40.88;;;;;;;2.20;100.00;99891.13;5046474;28;20028;-58
2021/12/11 03:53:35;;;;;;;76.20;42.05;;;;;;;2.20;100.00;99899.72;5048309;28;20078;-56
2021/12/11 03:56:04;;;;;;;68.50;39.63;;;;;;;2.22;100.00;99907.47;5046930;28;20864;-56
2021/12/11 03:58:30;;;;;;;67.90;40.72;;;;;;;2.21;100.00;99898.84;5049927;28;20024;-58
2021/12/11 04:01:02;;;;;;;66.78;39.60;;;;;;;2.24;100.00;99900.50;5049655;28;20147;-58
2021/12/11 04:03:30;;;;;;;63.17;39.92;;;;;;;2.24;100.00;99908.28;5050699;28;20432;-58
2021/12/11 04:05:57;;;;;;;74.10;39.67;;;;;;;2.25;100.00;99904.81;5047985;28;20113;-58
2021/12/11 04:08:29;;;;;;;68.40;40.78;;;;;;;2.25;100.00;99915.16;5048198;28;20081;-58
2021/12/11 04:10:55;;;;;;;58.05;37.22;;;;;;;2.26;100.00;99916.88;5029884;28;20038;-58
2021/12/11 04:13:21;;;;;;;65.72;40.50;;;;;;;2.26;100.00;99914.28;5046437;28;20028;-58
2021/12/11 04:15:49;;;;;;;75.75;41.67;;;;;;;2.25;100.00;99913.44;5047533;28;20136;-58
2021/12/11 04:18:14;;;;;;;74.07;42.47;;;;;;;2.26;100.00;99922.06;5047342;28;20024;-58
2021/12/11 04:20:43;;;;;;;68.10;39.30;;;;;;;2.27;100.00;99918.56;5046925;28;20051;-58
2021/12/11 04:23:11;;;;;;;65.15;39.17;;;;;;;2.29;100.00;99922.84;5045879;28;20981;-58
2021/12/11 04:25:40;;;;;;;69.80;41.97;;;;;;;2.29;100.00;99924.59;5028123;28;20838;-58
2021/12/11 04:28:08;;;;;;;67.07;39.67;;;;;;;1.81;100.00;99848.88;5045972;28;20024;-58
2021/12/11 04:30:34;;;;;;;77.10;40.03;;;;;;;2.31;100.00;99927.97;5046680;28;20866;-58
2021/12/11 04:33:01;;;;;;;65.68;41.33;;;;;;;2.31;100.00;99930.56;5046219;28;20098;-58
2021/12/11 04:35:29;;;;;;;77.20;42.50;;;;;;;2.31;100.00;99941.78;5046720;28;20595;-58
2021/12/11 04:37:56;;;;;;;82.43;45.20;;;;;;;2.32;100.00;99937.47;5045862;28;20130;-58
2021/12/11 04:40:28;;;;;;;78.97;42.22;;;;;;;2.34;100.00;99948.63;5045993;28;20027;-58
2021/12/11 04:43:01;;;;;;;86.00;45.10;;;;;;;2.35;100.00;99952.94;5029554;28;20023;-58
2021/12/11 04:45:35;;;;;;;81.47;44.47;;;;;;;2.35;100.00;99956.38;5045564;28;20032;-58
2021/12/11 04:48:14;;;;;;;86.22;44.60;;;;;;;2.36;100.00;99954.66;5045776;28;20078;-58
2021/12/11 04:50:52;;;;;;;71.38;41.80;;;;;;;2.38;100.00;99958.03;5047085;28;20059;-57
2021/12/11 04:53:33;;;;;;;85.57;45.45;;;;;;;2.36;100.00;99955.50;5029579;28;20091;-57
2021/12/11 04:58:46;;;;;;;69.97;41.70;;;;;;;2.38;100.00;99965.81;5046972;28;20139;-57
2021/12/11 05:09:16;;;;;;;79.90;43.88;;;;;;;2.40;100.00;99982.22;5046672;28;20223;-56
2021/12/11 05:11:51;;;;;;;81.53;46.55;;;;;;;2.42;100.00;99990.78;5045971;28;20032;-56
2021/12/11 05:14:19;;;;;;;87.75;49.22;;;;;;;2.39;100.00;99998.66;5045924;28;20028;-56
2021/12/11 05:16:44;;;;;;;89.47;47.97;;;;;;;2.39;100.00;99986.53;5045556;28;20131;-56
2021/12/11 05:19:11;;;;;;;85.22;49.10;;;;;;;1.90;100.00;99914.25;5046635;28;20031;-56
2021/12/11 05:21:36;;;;;;;92.00;48.25;;;;;;;2.33;100.00;99994.44;5046843;28;20873;-58
2021/12/11 05:24:03;;;;;;;73.57;45.00;;;;;;;2.39;100.00;100016.78;5046507;28;20044;-56
2021/12/11 05:26:29;;;;;;;76.53;47.17;;;;;;;2.40;100.00;100021.09;5046825;28;20031;-56
2021/12/11 05:28:55;;;;;;;77.18;45.63;;;;;;;2.42;100.00;100027.09;5046064;28;20139;-58
2021/12/11 05:31:20;;;;;;;73.63;45.25;;;;;;;2.42;100.00;100024.50;5046594;28;20024;-58
2021/12/11 05:33:47;;;;;;;66.63;39.85;;;;;;;2.45;100.00;100032.19;5051028;28;20032;-58
2021/12/11 05:36:15;;;;;;;76.28;46.85;;;;;;;2.43;100.00;100033.97;5050414;28;20086;-56
2021/12/11 05:38:41;;;;;;;67.78;41.67;;;;;;;2.45;100.00;100032.19;5050334;28;20121;-58
2021/12/11 05:41:10;;;;;;;72.45;44.28;;;;;;;2.46;100.00;100033.91;5049070;28;20560;-56
2021/12/11 05:43:36;;;;;;;79.40;44.75;;;;;;;2.45;100.00;100037.38;5050344;28;20032;-58
2021/12/11 05:46:03;;;;;;;69.55;43.53;;;;;;;2.49;100.00;100044.22;5051215;28;20380;-57
2021/12/11 05:48:29;;;;;;;65.28;41.20;;;;;;;2.36;100.00;100027.22;5048705;28;20017;-56
2021/12/11 05:50:57;;;;;;;74.10;42.80;;;;;;;2.49;100.00;100051.97;5049816;28;20051;-56
2021/12/11 05:53:23;;;;;;;67.07;41.42;;;;;;;2.50;100.00;100056.28;5050512;28;20102;-56
2021/12/11 05:55:51;;;;;;;70.40;41.90;;;;;;;2.52;100.00;100067.47;5048717;28;20098;-58
2021/12/11 05:58:27;;;;;;;67.70;40.88;;;;;;;2.01;100.00;99971.00;5031002;28;20970;-57
2021/12/11 06:00:53;;;;;;;67.35;41.70;;;;;;;2.53;100.00;100061.41;5049328;28;20036;-58
2021/12/11 06:03:19;;;;;;;66.78;40.75;;;;;;;2.12;100.00;99988.91;5050042;28;20144;-57
2021/12/11 06:05:44;;;;;;;57.10;37.08;;;;;;;2.52;100.00;100057.09;5049801;28;20885;-58
2021/12/11 06:08:11;;;;;;;62.40;40.58;;;;;;;2.54;100.00;100068.28;5048724;28;20832;-58
2021/12/11 06:10:39;;;;;;;55.35;37.97;;;;;;;2.54;100.00;100078.66;5050106;28;20086;-57
2021/12/11 06:13:06;;;;;;;58.35;40.80;;;;;;;2.53;100.00;100077.78;5049793;28;20032;-57
2021/12/11 06:15:31;;;;;;;61.97;39.35;;;;;;;2.55;100.00;100085.53;5049778;28;20035;-57
2021/12/11 06:17:57;;;;;;;66.05;41.33;;;;;;;2.56;100.00;100085.53;5049987;28;20135;-57
2021/12/11 06:20:27;;;;;;;77.43;41.35;;;;;;;2.56;100.00;100093.31;5050024;28;20032;-57
2021/12/11 06:22:52;;;;;;;59.28;41.97;;;;;;;2.46;100.00;100084.03;5050657;28;20032;-57
2021/12/11 06:25:24;;;;;;;66.47;43.28;;;;;;;2.59;100.00;100118.31;5049771;28;20288;-58
2021/12/11 06:27:50;;;;;;;64.10;42.05;;;;;;;2.60;100.00;100114.84;5049638;28;20028;-57
2021/12/11 06:30:16;;;;;;;64.93;41.47;;;;;;;2.60;100.00;100120.03;5049795;28;20027;-57
2021/12/11 06:32:44;;;;;;;66.75;41.88;;;;;;;2.60;100.00;100125.22;5049356;28;20028;-58
2021/12/11 06:35:21;;;;;;;66.07;40.03;;;;;;;2.62;100.00;100125.16;5049492;28;20027;-56
2021/12/11 06:37:47;;;;;;;65.90;38.28;;;;;;;2.61;100.00;100131.22;5050006;28;20143;-56
2021/12/11 06:40:13;;;;;;;58.20;34.97;;;;;;;2.62;100.00;100132.94;5049526;28;20870;-56
2021/12/11 06:42:38;;;;;;;62.60;37.95;;;;;;;2.64;100.00;100138.97;5048420;28;20992;-56
2021/12/11 06:45:04;;;;;;;50.17;35.75;;;;;;;2.16;100.00;100065.69;5049706;28;20059;-56
2021/12/11 06:47:30;;;;;;;53.97;35.72;;;;;;;2.64;100.00;100150.16;5049891;28;20782;-56
2021/12/11 06:49:55;;;;;;;56.83;34.75;;;;;;;2.66;100.00;100156.19;5049694;28;20020;-56
2021/12/11 06:52:23;;;;;;;55.13;34.88;;;;;;;2.68;100.00;100169.97;5047775;28;20490;-56
2021/12/11 06:54:51;;;;;;;62.80;35.45;;;;;;;2.68;100.00;100164.78;5031206;28;20032;-56
2021/12/11 06:57:16;;;;;;;50.58;32.50;;;;;;;2.70;100.00;100177.72;5049103;28;20104;-57
2021/12/11 06:59:42;;;;;;;54.67;34.28;;;;;;;2.62;100.00;100174.44;5049946;28;20042;-56
2021/12/11 07:02:07;;;;;;;46.50;30.92;;;;;;;2.71;100.00;100175.06;5048754;28;20143;-57
2021/12/11 07:04:33;;;;;;;51.35;33.63;;;;;;;2.71;100.00;100180.25;5048328;28;20035;-57
2021/12/11 07:06:58;;;;;;;50.35;33.25;;;;;;;2.70;100.00;100183.75;5045997;28;20032;-57
2021/12/11 07:09:26;;;;;;;49.45;31.42;;;;;;;2.72;100.00;100196.69;5046701;28;20186;-56
2021/12/11 07:11:53;;;;;;;52.90;33.60;;;;;;;2.71;100.00;100195.81;5048015;28;20031;-57
2021/12/11 07:14:20;;;;;;;58.75;32.83;;;;;;;2.67;100.00;100194.19;5047338;28;20817;-56
2021/12/11 07:16:46;;;;;;;49.13;32.72;;;;;;;2.74;100.00;100216.50;5048639;28;20037;-56
2021/12/11 07:19:13;;;;;;;47.65;32.97;;;;;;;2.76;100.00;100214.75;5048187;28;20797;-56
2021/12/11 07:21:39;;;;;;;49.85;31.45;;;;;;;2.73;100.00;100209.63;5047739;28;20100;-57
2021/12/11 07:24:06;;;;;;;61.97;35.38;;;;;;;2.80;100.00;100221.59;5047785;28;20127;-56
2021/12/11 07:26:34;;;;;;;61.28;36.00;;;;;;;2.82;100.00;100230.19;5047463;28;20028;-57
2021/12/11 07:29:06;;;;;;;58.65;36.95;;;;;;;2.80;100.00;100221.59;5048087;28;20413;-56
2021/12/11 07:31:33;;;;;;;68.30;39.80;;;;;;;2.86;100.00;100234.41;5046832;28;20139;-56
2021/12/11 07:33:59;;;;;;;69.03;41.60;;;;;;;2.89;100.00;100236.94;5046882;28;20036;-56
2021/12/11 07:36:25;;;;;;;62.17;38.38;;;;;;;2.92;100.00;100244.66;5047447;28;20028;-56
2021/12/11 07:38:51;;;;;;;70.18;42.60;;;;;;;2.72;100.00;100215.69;5045808;28;20028;-56
2021/12/11 07:41:17;;;;;;;71.70;41.58;;;;;;;2.95;100.00;100252.38;5046912;28;20036;-57
2021/12/11 07:43:44;;;;;;;71.32;41.08;;;;;;;2.96;100.00;100248.91;5047663;28;20032;-56
2021/12/11 07:46:13;;;;;;;79.90;42.92;;;;;;;2.92;100.00;100257.63;5052503;28;20060;-56
2021/12/11 07:48:39;;;;;;;81.68;41.42;;;;;;;2.98;100.00;100262.69;5054687;28;20093;-56
2021/12/11 07:51:05;;;;;;;76.75;43.88;;;;;;;3.01;100.00;100254.81;5049088;28;20024;-56
2021/12/11 07:53:31;;;;;;;74.82;43.15;;;;;;;3.04;100.00;100257.34;5044861;28;20905;-57
2021/12/11 07:55:56;;;;;;;63.60;39.40;;;;;;;3.04;100.00;100257.34;5046655;28;20042;-56
2021/12/11 07:58:22;;;;;;;68.85;42.95;;;;;;;3.12;100.00;100272.75;5046485;28;20127;-56
2021/12/11 08:00:48;;;;;;;74.13;45.20;;;;;;;3.15;100.00;100275.28;5045307;28;20257;-56
2021/12/11 08:03:15;;;;;;;79.28;46.33;;;;;;;3.18;100.00;100274.41;5027814;28;20020;-56
2021/12/11 08:05:45;;;;;;;83.40;50.60;;;;;;;3.23;100.00;100282.91;5054620;28;20177;-56
2021/12/11 08:08:11;;;;;;;73.55;44.00;;;;;;;3.26;100.00;100295.81;5060911;28;20085;-56
2021/12/11 08:10:41;;;;;;;66.53;44.95;;;;;;;3.29;100.00;100293.16;5061713;28;20946;-56
2021/12/11 08:13:07;;;;;;;76.30;43.83;;;;;;;3.28;100.00;100288.88;5066252;28;20248;-56
2021/12/11 08:15:33;;;;;;;67.32;42.95;;;;;;;3.40;100.00;100301.56;5056374;28;20033;-56
2021/12/11 08:17:59;;;;;;;62.90;35.75;;;;;;;3.46;100.00;100301.44;5061857;28;20966;-56
2021/12/11 08:20:28;;;;;;;64.32;36.20;;;;;;;3.51;100.00;100305.66;5068439;28;20932;-56
2021/12/11 08:22:54;;;;;;;55.50;37.15;;;;;;;3.58;100.00;100322.78;5065044;28;20030;-56
2021/12/11 08:25:21;;;;;;;58.80;35.20;;;;;;;3.15;100.00;100240.69;5062368;28;20129;-56
2021/12/11 08:27:47;;;;;;;60.15;34.45;;;;;;;3.64;100.00;100328.72;5056133;28;20032;-56
2021/12/11 08:30:13;;;;;;;51.72;34.38;;;;;;;3.70;100.00;100334.63;5061045;28;20028;-56
2021/12/11 08:32:38;;;;;;;59.08;31.92;;;;;;;3.75;100.00;100340.56;5060055;28;20031;-56
2021/12/11 08:35:09;;;;;;;54.22;31.02;;;;;;;3.62;100.00;100299.34;5063695;28;20102;-56
2021/12/11 08:37:35;;;;;;;50.38;30.65;;;;;;;3.90;100.00;100337.63;5059390;28;20035;-57
2021/12/11 08:40:02;;;;;;;49.95;29.63;;;;;;;3.99;100.00;100332.19;5050254;28;20029;-56
2021/12/11 08:42:28;;;;;;;45.30;27.63;;;;;;;3.90;100.00;100315.97;5050142;28;20035;-57
2021/12/11 08:44:59;;;;;;;51.95;26.48;;;;;;;4.08;100.00;100349.31;5059392;28;20024;-56
2021/12/11 08:47:26;;;;;;;48.33;24.05;;;;;;;4.08;100.00;100344.13;5061957;28;20127;-57
2021/12/11 08:49:53;;;;;;;44.20;23.52;;;;;;;4.10;100.00;100353.56;5067895;28;20062;-57
2021/12/11 08:52:25;;;;;;;44.58;22.30;;;;;;;4.06;100.00;100357.13;5067254;28;20508;-56
2021/12/11 08:54:52;;;;;;;35.28;22.92;;;;;;;4.11;100.00;100360.50;5051416;28;20104;-55
2021/12/11 08:57:22;;;;;;;41.47;21.33;;;;;;;4.14;100.00;100364.75;5057322;28;20060;-55
2021/12/11 08:59:50;;;;;;;33.17;20.95;;;;;;;4.18;100.00;100365.53;5048846;28;20040;-56
2021/12/11 09:02:41;;;;;;;43.58;18.95;;;;;;;4.19;100.00;100375.06;5066319;28;20039;-56
2021/12/11 09:05:15;;;;;;;44.13;19.80;;;;;;;4.22;100.00;100373.22;5056709;28;20078;-56
2021/12/11 09:07:49;;;;;;;41.45;18.92;;;;;;;4.08;100.00;100354.50;5049899;28;20081;-56
2021/12/11 09:10:43;;;;;;;41.35;18.25;;;;;;;4.24;100.00;100373.19;5048554;28;20139;-56
2021/12/11 09:13:26;;;;;;;26.17;16.00;;;;;;;4.26;100.00;100392.22;5048686;28;20020;-56
2021/12/11 09:16:03;;;;;;;29.05;15.68;;;;;;;4.27;100.00;100401.72;5050135;28;20131;-56
2021/12/11 09:18:34;;;;;;;36.47;15.20;;;;;;;4.26;100.00;100394.81;5064231;28;20023;-57
2021/12/11 09:21:05;;;;;;;22.30;13.25;;;;;;;4.29;100.00;100405.13;5042422;28;20977;-57
2021/12/11 09:23:41;;;;;;;26.73;13.07;;;;;;;4.31;100.00;100413.75;5064086;28;20027;-61
2021/12/11 09:26:14;;;;;;;19.42;11.95;;;;;;;4.33;100.00;100419.75;5059499;28;20031;-57
2021/12/11 09:28:45;;;;;;;30.70;12.50;;;;;;;4.38;100.00;100410.09;5046275;28;20028;-56
2021/12/11 09:31:19;;;;;;;17.98;10.50;;;;;;;4.44;100.00;100426.41;5060049;28;20090;-56
2021/12/11 09:33:49;;;;;;;28.75;12.18;;;;;;;4.49;100.00;100434.13;5060815;28;20070;-56
2021/12/11 09:36:22;;;;;;;30.30;11.40;;;;;;;4.56;100.00;100446.09;5059084;28;20043;-56
2021/12/11 09:38:53;;;;;;;18.52;10.57;;;;;;;4.39;100.00;100417.03;5063288;28;20044;-56
2021/12/11 09:41:21;;;;;;;27.05;12.13;;;;;;;4.55;100.00;100444.38;5049382;28;20031;-56
2021/12/11 09:44:07;;;;;;;26.95;12.38;;;;;;;4.59;100.00;100453.81;5049402;28;20032;-56
2021/12/11 09:46:37;;;;;;;22.98;11.27;;;;;;;4.68;100.00;100450.09;5048852;28;20033;-56
2021/12/11 09:49:05;;;;;;;21.58;10.98;;;;;;;4.65;100.00;100464.06;5051678;28;20917;-56
2021/12/11 09:51:36;;;;;;;33.95;12.02;;;;;;;4.59;100.00;100461.63;5060120;28;20039;-56
2021/12/11 09:54:08;;;;;;;25.42;11.30;;;;;;;4.55;100.00;100471.25;5060326;28;20027;-56
2021/12/11 09:56:39;;;;;;;23.63;10.23;;;;;;;4.52;100.00;100471.31;5060967;28;20082;-56
2021/12/11 09:59:08;;;;;;;27.60;10.43;;;;;;;4.50;100.00;100472.22;5064011;28;20884;-56
2021/12/11 10:01:38;;;;;;;14.77;8.80;;;;;;;4.49;100.00;100486.16;5048889;28;20060;-56
2021/12/11 10:04:11;;;;;;;17.88;9.40;;;;;;;4.46;100.00;100487.06;5049184;28;20797;-56
2021/12/11 10:07:13;;;;;;;29.55;11.85;;;;;;;4.45;100.00;100494.91;5064491;28;20065;-56
2021/12/11 10:09:50;;;;;;;22.83;10.38;;;;;;;4.45;100.00;100494.91;5068314;28;20075;-56
2021/12/11 10:12:22;;;;;;;28.48;11.00;;;;;;;4.42;100.00;100494.97;5068981;28;20055;-56
2021/12/11 10:15:00;;;;;;;17.60;9.90;;;;;;;4.46;100.00;100494.84;5069552;28;20066;-56
2021/12/11 10:17:34;;;;;;;22.52;10.82;;;;;;;4.50;100.00;100495.63;5069166;28;20871;-56
2021/12/11 10:20:03;;;;;;;26.13;10.48;;;;;;;4.54;100.00;100497.28;5069151;28;20411;-56
2021/12/11 10:22:32;;;;;;;27.35;11.23;;;;;;;4.49;100.00;100492.22;5070104;28;20074;-56
2021/12/11 10:24:59;;;;;;;22.50;10.05;;;;;;;4.50;100.00;100493.03;5052093;28;20895;-56
2021/12/11 10:27:28;;;;;;;25.58;11.30;;;;;;;4.47;100.00;100495.72;5068123;28;20048;-56
2021/12/11 10:29:57;;;;;;;20.98;9.88;;;;;;;4.47;100.00;100493.09;5069841;28;20020;-56
2021/12/11 10:32:26;;;;;;;23.38;10.65;;;;;;;4.41;100.00;100488.91;5068474;28;20035;-56
2021/12/11 10:34:55;;;;;;;22.13;11.00;;;;;;;4.49;100.00;100501.75;5068046;28;20027;-56
2021/12/11 10:37:29;;;;;;;19.73;9.95;;;;;;;4.50;100.00;100513.84;5069540;28;20027;-56
2021/12/11 10:40:00;;;;;;;31.83;10.95;;;;;;;4.57;100.00;100516.28;5069428;28;20134;-56
2021/12/11 10:42:26;;;;;;;29.00;11.80;;;;;;;4.61;100.00;100522.25;5050056;28;20027;-56
2021/12/11 10:44:55;;;;;;;18.35;9.73;;;;;;;4.67;100.00;100522.09;5050551;28;20059;-56
2021/12/11 10:47:25;;;;;;;29.38;10.75;;;;;;;4.68;100.00;100529.03;5067525;28;20058;-56
2021/12/11 10:49:52;;;;;;;23.80;10.50;;;;;;;4.66;100.00;100525.63;5069065;28;20874;-56
2021/12/11 10:52:22;;;;;;;24.15;9.05;;;;;;;4.70;100.00;100524.63;5067272;28;20043;-56
2021/12/11 10:54:50;;;;;;;25.48;11.07;;;;;;;4.79;100.00;100528.78;5068162;28;20031;-56
2021/12/11 10:57:17;;;;;;;24.73;10.27;;;;;;;4.94;100.00;100524.03;5068257;28;20864;-56
2021/12/11 10:59:45;;;;;;;18.58;10.02;;;;;;;5.01;100.00;100523.00;5068385;28;20910;-56
2021/12/11 11:02:14;;;;;;;23.98;8.60;;;;;;;5.01;100.00;100528.19;5069412;28;20019;-56
2021/12/11 11:04:49;;;;;;;22.48;8.40;;;;;;;4.98;100.00;100523.06;5068033;28;20020;-56
2021/12/11 11:07:15;;;;;;;15.55;8.02;;;;;;;4.81;100.00;100516.56;5066631;28;20028;-57
2021/12/11 11:09:42;;;;;;;15.02;7.40;;;;;;;4.95;100.00;100546.59;5067821;28;20027;-57
2021/12/11 11:12:15;;;;;;;18.92;8.35;;;;;;;5.01;100.00;100546.41;5069086;28;20027;-56
2021/12/11 11:14:42;;;;;;;20.67;7.47;;;;;;;5.05;100.00;100545.47;5067089;28;20055;-56
2021/12/11 11:17:12;;;;;;;15.98;8.60;;;;;;;5.13;100.00;100558.28;5066381;28;20088;-56
2021/12/11 11:19:40;;;;;;;17.73;8.65;;;;;;;5.15;100.00;100561.69;5067722;28;20134;-56
2021/12/11 11:22:16;;;;;;;14.43;7.55;;;;;;;5.12;100.00;100564.38;5067477;28;20070;-57
2021/12/11 11:24:49;;;;;;;16.95;7.65;;;;;;;5.11;100.00;100571.34;5065460;28;20138;-56
2021/12/11 11:27:16;;;;;;;23.40;7.23;;;;;;;5.17;100.00;100574.69;5067158;28;20295;-56
2021/12/11 11:29:42;;;;;;;17.42;7.70;;;;;;;5.14;100.00;100571.25;5066874;28;20273;-57
2021/12/11 11:32:11;;;;;;;14.70;7.22;;;;;;;4.80;100.00;100531.31;5065802;28;20142;-57
2021/12/11 11:34:40;;;;;;;21.75;8.02;;;;;;;5.04;100.00;100574.97;5066418;28;20030;-57
2021/12/11 11:37:06;;;;;;;23.77;8.50;;;;;;;5.06;100.00;100586.22;5065775;28;20376;-57